Time;durP1;ratioP1;P1;durP2;ratioP2;P2;SDS_P1;SDS_P2;PMS_P1;PMS_P2;Temp;Humidity;BMP_temperature;BMP_pressure;BME280_temperature;BME280_humidity;BME280_pressure;Samples;Min_cycle;Max_cycle;Signal;HPM_P1;HPM_P2
2024/01/11 00:01:46;;;;;;;32.08;15.20;;;;;;;-2.84;67.73;101383.38;4991694;28;20046;-76
2024/01/11 00:04:13;;;;;;;33.30;15.40;;;;;;;-2.85;67.83;101381.63;4991738;28;20544;-76
2024/01/11 00:06:42;;;;;;;33.03;15.55;;;;;;;-2.86;68.04;101389.31;4991692;28;20042;-76
2024/01/11 00:09:09;;;;;;;34.13;15.55;;;;;;;-2.89;67.88;101385.84;4991829;28;20046;-75
2024/01/11 00:11:35;;;;;;;30.83;14.45;;;;;;;-2.88;68.23;101376.38;5332589;23;20415;-75
2024/01/11 00:14:02;;;;;;;34.83;15.88;;;;;;;-2.89;68.17;101377.22;4991944;28;20582;-76
2024/01/11 00:16:29;;;;;;;34.55;15.23;;;;;;;-2.89;67.93;101379.81;4974586;23;20585;-81
2024/01/11 00:18:55;;;;;;;36.92;16.05;;;;;;;-2.90;68.16;101384.13;4974356;28;20088;-79
2024/01/11 00:21:22;;;;;;;36.47;15.60;;;;;;;-2.90;68.29;101386.69;4991544;28;20050;-81
2024/01/11 00:23:49;;;;;;;36.20;15.38;;;;;;;-2.90;67.90;101388.38;4991546;28;20146;-81
2024/01/11 00:26:16;;;;;;;34.92;15.65;;;;;;;-2.90;68.17;101388.38;4991702;28;20046;-81
2024/01/11 00:28:42;;;;;;;32.47;15.85;;;;;;;-2.89;68.05;101391.00;4991592;28;20754;-80
2024/01/11 00:31:09;;;;;;;39.28;16.48;;;;;;;-2.84;68.03;101387.66;4991215;28;20141;-81
2024/01/11 00:33:35;;;;;;;34.97;15.65;;;;;;;-2.83;67.91;101382.56;4991499;28;20089;-81
2024/01/11 00:36:03;;;;;;;36.20;15.63;;;;;;;-2.80;68.09;101394.66;4991361;28;20057;-80
2024/01/11 00:38:30;;;;;;;34.05;15.40;;;;;;;-2.79;68.37;101392.09;4991210;28;20077;-80
2024/01/11 00:40:56;;;;;;;37.10;16.25;;;;;;;-2.78;67.61;101383.53;4990913;28;20137;-81
2024/01/11 00:43:23;;;;;;;30.77;14.73;;;;;;;-2.77;67.54;101382.69;4991070;28;20105;-82
2024/01/11 00:45:50;;;;;;;32.65;14.63;;;;;;;-2.76;67.37;101381.00;4991246;28;20146;-80
2024/01/11 00:48:16;;;;;;;32.95;14.95;;;;;;;-2.77;67.59;101380.13;4991565;28;20050;-79
2024/01/11 00:50:43;;;;;;;30.38;14.38;;;;;;;-2.77;67.75;101374.06;4991208;28;20089;-79
2024/01/11 00:53:11;;;;;;;31.02;16.02;;;;;;;-2.78;67.89;101378.38;4991047;28;20539;-79
2024/01/11 00:55:37;;;;;;;31.17;14.57;;;;;;;-2.79;67.33;101392.09;4991177;28;20149;-80
2024/01/11 00:58:04;;;;;;;27.83;13.80;;;;;;;-2.80;67.59;101390.34;4990943;28;20071;-80
2024/01/11 01:00:30;;;;;;;32.35;14.55;;;;;;;-2.81;67.49;101398.91;4973408;28;20054;-79
2024/01/11 01:02:57;;;;;;;31.88;14.40;;;;;;;-2.81;67.51;101398.91;4973861;28;20090;-79
2024/01/11 01:05:23;;;;;;;30.13;13.57;;;;;;;-2.81;67.71;101404.06;4991390;28;20113;-81
2024/01/11 01:07:50;;;;;;;31.25;13.77;;;;;;;-2.80;68.00;101404.94;4991288;28;20042;-80
2024/01/11 01:10:17;;;;;;;30.80;14.05;;;;;;;-2.80;67.95;101407.53;4990967;28;20471;-80
2024/01/11 01:12:43;;;;;;;28.50;13.65;;;;;;;-2.81;67.92;101401.50;4990921;28;20072;-81
2024/01/11 01:15:10;;;;;;;32.80;14.73;;;;;;;-2.82;67.30;101404.91;4990824;28;20073;-80
2024/01/11 01:17:37;;;;;;;27.55;13.40;;;;;;;-2.83;67.48;101410.03;4973801;28;20496;-80
2024/01/11 01:20:04;;;;;;;34.33;14.93;;;;;;;-2.85;67.59;101402.25;4991933;28;20049;-78
2024/01/11 01:22:31;;;;;;;29.67;13.75;;;;;;;-2.86;67.69;101395.34;4994647;28;20145;-80
2024/01/11 01:24:58;;;;;;;31.73;15.27;;;;;;;-2.88;67.50;101408.19;4994879;28;20062;-80
2024/01/11 01:27:24;;;;;;;28.50;13.98;;;;;;;-2.89;67.67;101408.16;4994739;28;20089;-81
2024/01/11 01:29:51;;;;;;;32.50;15.13;;;;;;;-2.90;67.53;101414.16;4994938;28;20047;-81
2024/01/11 01:32:17;;;;;;;34.10;14.10;;;;;;;-2.91;67.97;101415.84;4994364;28;20133;-81
2024/01/11 01:34:44;;;;;;;30.48;14.43;;;;;;;-2.90;67.50;101419.31;4977462;28;20050;-79
2024/01/11 01:37:14;;;;;;;34.58;14.60;;;;;;;-2.90;67.62;101403.84;4994718;28;20410;-80
2024/01/11 01:39:40;;;;;;;37.15;14.63;;;;;;;-2.89;67.24;101403.00;4994437;28;20046;-79
2024/01/11 01:42:07;;;;;;;28.67;13.10;;;;;;;-2.89;67.57;101408.16;4994166;28;20614;-81
2024/01/11 01:44:34;;;;;;;26.17;12.38;;;;;;;-2.91;66.97;101407.25;4977036;28;20076;-79
2024/01/11 01:47:03;;;;;;;28.25;13.13;;;;;;;-2.94;67.09;101404.59;4994628;28;20051;-80
2024/01/11 01:49:30;;;;;;;30.90;13.02;;;;;;;-2.97;67.16;101395.09;4994454;28;20046;-80
2024/01/11 01:51:56;;;;;;;28.95;13.57;;;;;;;-2.97;67.21;101401.94;4994060;28;20491;-80
2024/01/11 01:54:23;;;;;;;30.05;13.10;;;;;;;-2.98;67.27;101402.78;4994399;28;20152;-81
2024/01/11 01:56:51;;;;;;;26.65;12.88;;;;;;;-3.01;67.23;101412.19;4994389;28;20108;-80
2024/01/11 01:59:20;;;;;;;26.42;13.15;;;;;;;-3.02;67.82;101419.88;4977092;28;20092;-81
2024/01/11 02:01:47;;;;;;;26.45;12.27;;;;;;;-3.02;67.31;101425.88;4994018;28;20487;-80
2024/01/11 02:04:15;;;;;;;30.20;12.90;;;;;;;-3.03;67.49;101416.41;4994436;28;20058;-80
2024/01/11 02:06:47;;;;;;;27.30;12.10;;;;;;;-3.02;67.74;101409.56;4994199;28;20042;-81
2024/01/11 02:09:15;;;;;;;22.70;12.10;;;;;;;-3.02;67.52;101405.25;4976647;28;20420;-82
2024/01/11 02:11:41;;;;;;;23.67;12.45;;;;;;;-3.01;67.35;101401.88;4976595;28;20052;-81
2024/01/11 02:14:10;;;;;;;25.40;12.98;;;;;;;-3.03;67.60;101388.06;4994270;28;20065;-81
2024/01/11 02:16:37;;;;;;;26.33;12.45;;;;;;;-3.05;67.07;101389.75;4993818;28;20059;-81
2024/01/11 02:19:12;;;;;;;25.35;12.85;;;;;;;-3.08;67.16;101394.81;4993919;28;20050;-81
2024/01/11 02:21:42;;;;;;;25.77;11.75;;;;;;;-3.10;67.54;101381.00;4976273;28;20105;-80
2024/01/11 02:24:09;;;;;;;27.75;11.93;;;;;;;-3.15;67.40;101387.75;4993889;28;20043;-81
2024/01/11 02:26:36;;;;;;;23.90;11.98;;;;;;;-3.18;66.82;101395.41;4993916;28;20057;-81
2024/01/11 02:29:03;;;;;;;29.50;12.93;;;;;;;-3.21;67.66;101403.91;4993915;28;20046;-80
2024/01/11 02:31:30;;;;;;;28.95;12.45;;;;;;;-3.25;67.59;101403.78;4992298;28;20061;-79
2024/01/11 02:33:57;;;;;;;28.33;12.27;;;;;;;-3.27;67.72;101403.75;4993467;28;20046;-82
2024/01/11 02:36:25;;;;;;;26.77;12.70;;;;;;;-3.28;67.38;101410.59;4976242;28;20463;-80
2024/01/11 02:38:53;;;;;;;24.98;12.68;;;;;;;-3.29;68.13;101419.16;4976492;28;20046;-80
2024/01/11 02:41:21;;;;;;;29.02;12.88;;;;;;;-3.29;67.90;101406.28;4993273;28;20454;-81
2024/01/11 02:43:48;;;;;;;25.20;11.88;;;;;;;-3.28;68.22;101400.28;4993410;28;20046;-80
2024/01/11 02:46:16;;;;;;;27.58;14.10;;;;;;;-3.25;67.93;101424.41;4993393;28;20134;-81
2024/01/11 02:48:43;;;;;;;30.00;12.85;;;;;;;-3.25;67.85;101414.09;4993405;28;20455;-81
2024/01/11 02:51:09;;;;;;;27.60;12.32;;;;;;;-3.24;68.29;101419.31;4993046;28;20050;-81
2024/01/11 02:53:36;;;;;;;26.58;13.20;;;;;;;-3.22;67.84;101425.34;4993173;28;20550;-80
2024/01/11 02:56:03;;;;;;;25.80;12.43;;;;;;;-3.22;68.19;101403.88;4993332;28;20089;-80
2024/01/11 02:58:30;;;;;;;29.98;13.25;;;;;;;-3.21;68.03;101397.91;4993175;28;20484;-81
2024/01/11 03:00:56;;;;;;;27.98;12.05;;;;;;;-3.21;68.11;101405.63;4992921;28;20050;-79
2024/01/11 03:03:23;;;;;;;25.60;12.30;;;;;;;-3.21;68.21;101411.63;4993100;28;20046;-80
2024/01/11 03:05:50;;;;;;;26.85;12.93;;;;;;;-3.21;67.65;101403.91;4993500;28;20404;-80
2024/01/11 03:08:16;;;;;;;24.33;12.65;;;;;;;-3.22;68.19;101409.03;4993161;28;20056;-80
2024/01/11 03:10:43;;;;;;;25.88;12.55;;;;;;;-3.23;67.65;101402.13;4992857;28;20046;-81
2024/01/11 03:13:10;;;;;;;24.48;12.18;;;;;;;-3.24;68.10;101415.84;4992892;28;20050;-80
2024/01/11 03:15:36;;;;;;;27.45;12.43;;;;;;;-3.24;67.98;101405.53;4992693;28;20078;-81
2024/01/11 03:18:03;;;;;;;22.67;11.45;;;;;;;-3.24;67.84;101413.25;4992921;28;20062;-81
2024/01/11 03:20:30;;;;;;;25.02;12.32;;;;;;;-3.25;68.15;101421.81;4992789;28;20050;-81
2024/01/11 03:22:57;;;;;;;23.02;11.23;;;;;;;-3.25;68.00;101406.38;4992814;28;20056;-81
2024/01/11 03:25:24;;;;;;;26.52;12.48;;;;;;;-3.26;68.21;101400.34;4992968;28;20459;-81
2024/01/11 03:27:50;;;;;;;26.50;12.82;;;;;;;-3.27;68.13;101391.75;4992656;28;20077;-79
2024/01/11 03:30:17;;;;;;;22.92;12.20;;;;;;;-3.28;68.01;101402.88;4992398;28;20495;-81
2024/01/11 03:32:43;;;;;;;27.05;12.45;;;;;;;-3.28;68.22;101402.88;4992661;28;20054;-81
2024/01/11 03:35:10;;;;;;;25.77;11.75;;;;;;;-3.28;67.72;101402.88;4992694;28;20050;-81
2024/01/11 03:37:37;;;;;;;26.60;12.63;;;;;;;-3.29;67.79;101410.59;4975334;28;20069;-81
2024/01/11 03:40:04;;;;;;;26.10;11.75;;;;;;;-3.29;68.28;101410.59;4992445;28;20058;-82
2024/01/11 03:42:31;;;;;;;31.65;13.50;;;;;;;-3.30;68.27;101411.38;4991561;28;20046;-81
2024/01/11 03:44:58;;;;;;;26.77;12.88;;;;;;;-3.29;67.71;101418.31;4992147;28;20503;-80
2024/01/11 03:47:24;;;;;;;27.55;13.10;;;;;;;-3.31;68.37;101418.25;4975015;28;20487;-81
2024/01/11 03:49:51;;;;;;;26.42;12.60;;;;;;;-3.32;68.17;101424.22;4992294;28;20054;-80
2024/01/11 03:52:17;;;;;;;25.85;12.00;;;;;;;-3.34;67.71;101428.47;4991980;28;20057;-81
2024/01/11 03:54:44;;;;;;;28.15;13.18;;;;;;;-3.36;67.88;101430.16;4992226;28;20141;-80
2024/01/11 03:57:11;;;;;;;29.92;13.55;;;;;;;-3.36;68.19;101435.28;4992244;28;20062;-81
2024/01/11 03:59:38;;;;;;;25.15;12.65;;;;;;;-3.36;68.27;101445.59;4991964;28;20050;-81
2024/01/11 04:02:04;;;;;;;24.88;12.50;;;;;;;-3.35;68.53;101447.34;4974399;28;20133;-81
2024/01/11 04:04:31;;;;;;;30.20;12.85;;;;;;;-3.36;68.46;101440.44;4991886;28;20487;-80
2024/01/11 04:06:58;;;;;;;29.50;13.30;;;;;;;-3.34;67.98;101443.91;4992112;28;20160;-81
2024/01/11 04:09:24;;;;;;;32.28;14.63;;;;;;;-3.33;68.02;101432.78;4991772;28;20558;-80
2024/01/11 04:11:51;;;;;;;30.27;13.50;;;;;;;-3.33;68.29;101437.06;4991619;28;20054;-80
2024/01/11 04:14:18;;;;;;;28.45;14.00;;;;;;;-3.33;67.81;101440.50;4991585;28;20557;-81
2024/01/11 04:16:44;;;;;;;29.40;12.90;;;;;;;-3.34;68.18;101440.47;4991429;28;20137;-81
2024/01/11 04:19:11;;;;;;;29.88;13.18;;;;;;;-3.37;68.46;101430.94;4991743;28;20145;-81
2024/01/11 04:21:40;;;;;;;25.38;12.73;;;;;;;-3.37;68.16;101425.78;4991566;28;20094;-81
2024/01/11 04:24:08;;;;;;;28.50;13.32;;;;;;;-3.35;67.94;101425.84;4974612;28;20129;-79
2024/01/11 04:26:35;;;;;;;30.80;14.25;;;;;;;-3.37;68.07;101428.38;4974382;28;20073;-78
2024/01/11 04:29:01;;;;;;;32.50;14.93;;;;;;;-3.36;67.68;101422.41;4974127;28;20101;-80
2024/01/11 04:31:28;;;;;;;26.55;13.02;;;;;;;-3.37;68.18;101415.50;4974150;28;20053;-79
2024/01/11 04:33:55;;;;;;;28.38;12.65;;;;;;;-3.38;67.98;101398.31;4974200;28;20061;-80
2024/01/11 04:36:21;;;;;;;28.65;13.20;;;;;;;-3.35;68.26;101407.81;4991625;28;20105;-80
2024/01/11 04:38:48;;;;;;;31.77;15.20;;;;;;;-3.34;68.75;101412.13;4974258;28;20155;-81
2024/01/11 04:41:15;;;;;;;33.20;15.38;;;;;;;-3.32;68.33;101406.19;4973837;28;20558;-80
2024/01/11 04:43:45;;;;;;;34.10;14.15;;;;;;;-3.31;68.14;101407.97;4973886;28;20069;-81
2024/01/11 04:46:14;;;;;;;37.15;16.05;;;;;;;-3.30;67.76;101411.38;4974237;28;20488;-81
2024/01/11 04:48:41;;;;;;;30.98;15.18;;;;;;;-3.30;67.96;101409.69;4991539;28;20047;-80
2024/01/11 04:51:08;;;;;;;34.05;15.88;;;;;;;-3.30;68.57;101412.28;4991347;28;20077;-81
2024/01/11 04:53:39;;;;;;;29.85;14.65;;;;;;;-3.32;68.17;101418.22;4991125;28;20058;-81
2024/01/11 04:56:10;;;;;;;34.42;14.80;;;;;;;-3.34;67.55;101420.75;4990422;28;20063;-81
2024/01/11 04:58:40;;;;;;;32.60;15.27;;;;;;;-3.35;67.66;101416.44;4991324;28;20451;-81
2024/01/11 05:01:06;;;;;;;36.30;16.08;;;;;;;-3.36;68.12;101398.34;4990972;28;20086;-82
2024/01/11 05:03:33;;;;;;;37.42;15.68;;;;;;;-3.35;68.51;101377.81;4990946;28;20046;-81
2024/01/11 05:06:00;;;;;;;37.03;16.67;;;;;;;-3.34;68.72;101379.53;4991264;28;20055;-81
2024/01/11 05:08:27;;;;;;;33.72;16.35;;;;;;;-3.32;68.68;101388.16;4991286;28;20054;-81
2024/01/11 05:10:54;;;;;;;40.13;17.42;;;;;;;-3.30;68.47;101403.66;4991040;28;20058;-81
2024/01/11 05:13:22;;;;;;;32.00;17.10;;;;;;;-3.30;68.36;101412.28;4973911;28;20053;-81
2024/01/11 05:15:49;;;;;;;35.67;16.73;;;;;;;-3.28;68.22;101423.47;4990953;28;20050;-79
2024/01/11 05:18:15;;;;;;;40.65;17.15;;;;;;;-3.27;68.50;101425.25;4991113;28;20145;-81
2024/01/11 05:20:42;;;;;;;34.70;16.15;;;;;;;-3.25;68.62;101426.97;4991270;28;20069;-80
2024/01/11 05:23:08;;;;;;;35.53;15.82;;;;;;;-3.22;68.92;101427.06;4991173;28;20105;-80
2024/01/11 05:25:35;;;;;;;33.55;16.83;;;;;;;-3.20;68.45;101426.28;4991168;28;20051;-81
2024/01/11 05:28:03;;;;;;;32.30;15.40;;;;;;;-3.16;68.39;101420.38;4991041;28;20060;-80
2024/01/11 05:30:30;;;;;;;31.13;16.42;;;;;;;-3.15;68.76;101424.69;4990709;28;20054;-80
2024/01/11 05:32:57;;;;;;;34.85;15.82;;;;;;;-3.13;68.02;101427.31;4991088;28;20058;-81
2024/01/11 05:35:27;;;;;;;34.53;16.13;;;;;;;-3.11;68.29;101441.09;4991137;28;20046;-81
2024/01/11 05:37:57;;;;;;;36.42;15.77;;;;;;;-3.07;68.30;101452.38;4973823;28;20101;-81
2024/01/11 05:40:23;;;;;;;31.75;15.95;;;;;;;-3.06;68.51;101438.66;4990768;28;20050;-80
2024/01/11 05:42:50;;;;;;;36.30;15.80;;;;;;;-3.05;68.09;101458.41;4990611;28;20543;-81
2024/01/11 05:45:17;;;;;;;34.58;16.10;;;;;;;-3.06;67.71;101480.72;4990847;28;20086;-80
2024/01/11 05:47:50;;;;;;;31.55;15.57;;;;;;;-3.07;67.31;101484.13;4974677;28;20478;-81
2024/01/11 05:50:16;;;;;;;31.10;15.75;;;;;;;-3.10;67.38;101489.19;4990825;28;20467;-82
2024/01/11 05:52:43;;;;;;;31.73;14.95;;;;;;;-3.15;67.50;101490.78;4990820;28;20145;-81
2024/01/11 05:55:10;;;;;;;37.75;17.08;;;;;;;-3.18;67.36;101503.59;4990589;28;20118;-81
2024/01/11 05:57:36;;;;;;;31.83;14.45;;;;;;;-3.22;66.96;101504.34;4973339;28;20073;-81
2024/01/11 06:00:05;;;;;;;31.95;14.77;;;;;;;-3.28;67.11;101502.47;4990924;28;20407;-80
2024/01/11 06:02:31;;;;;;;31.20;14.13;;;;;;;-3.34;66.93;101503.16;4990278;28;20050;-82
2024/01/11 06:04:58;;;;;;;29.50;13.68;;;;;;;-3.39;67.29;101502.16;4990614;28;20094;-78
2024/01/11 06:07:24;;;;;;;27.13;12.57;;;;;;;-3.41;67.56;101514.09;4993419;28;20066;-81
2024/01/11 06:09:51;;;;;;;29.88;13.98;;;;;;;-3.47;67.60;101508.78;4994050;28;20138;-81
2024/01/11 06:12:17;;;;;;;26.90;13.57;;;;;;;-3.49;67.75;101498.44;4976090;28;20120;-81
2024/01/11 06:17:23;;;;;;;24.77;12.57;;;;;;;-3.53;67.58;101489.75;5035658;23;20047;-75
2024/01/11 06:19:50;;;;;;;28.27;13.23;;;;;;;-3.54;67.79;101481.97;4994657;28;20133;-75
2024/01/11 06:22:17;;;;;;;29.15;13.55;;;;;;;-3.54;68.22;101475.09;4994175;28;20088;-75
2024/01/11 06:24:44;;;;;;;31.02;14.27;;;;;;;-3.53;68.17;101469.16;4994385;28;20078;-74
2024/01/11 06:27:11;;;;;;;28.98;14.25;;;;;;;-3.51;68.24;101456.34;4994299;28;20407;-76
2024/01/11 06:29:37;;;;;;;29.17;13.07;;;;;;;-3.50;68.22;101458.06;4993916;28;20069;-77
2024/01/11 06:32:04;;;;;;;29.77;13.73;;;;;;;-3.46;68.35;101453.88;4993310;28;20590;-79
2024/01/11 06:34:31;;;;;;;32.00;14.65;;;;;;;-3.44;68.63;101465.94;4993626;28;20046;-75
2024/01/11 06:36:58;;;;;;;37.70;14.38;;;;;;;-3.42;68.25;101460.84;4993464;28;20092;-77
2024/01/11 06:39:24;;;;;;;29.40;13.73;;;;;;;-3.38;68.33;101466.94;4993405;28;20113;-76
2024/01/11 06:41:51;;;;;;;29.85;14.32;;;;;;;-3.36;68.24;101473.03;4975761;28;20480;-75
2024/01/11 06:44:17;;;;;;;28.05;13.35;;;;;;;-3.35;67.98;101462.78;4993219;28;20054;-77
2024/01/11 06:46:44;;;;;;;28.17;13.20;;;;;;;-3.34;67.85;101464.53;4993466;28;20061;-76
2024/01/11 06:49:11;;;;;;;33.25;14.15;;;;;;;-3.33;68.33;101448.22;4993396;28;20060;-76
2024/01/11 06:51:39;;;;;;;27.10;13.02;;;;;;;-3.32;67.99;101460.28;4993084;28;20057;-75
2024/01/11 06:54:06;;;;;;;32.17;14.45;;;;;;;-3.32;68.17;101464.56;4993092;28;20061;-75
2024/01/11 06:56:33;;;;;;;28.27;13.95;;;;;;;-3.31;67.82;101463.72;4993041;28;20114;-76
2024/01/11 06:58:59;;;;;;;28.65;12.82;;;;;;;-3.31;67.79;101456.00;4993315;28;20097;-75
2024/01/11 07:01:26;;;;;;;27.42;12.88;;;;;;;-3.31;67.80;101464.63;4992833;28;20488;-78
2024/01/11 07:03:53;;;;;;;31.55;13.93;;;;;;;-3.32;67.56;101456.84;4992928;28;20117;-75
2024/01/11 07:06:19;;;;;;;37.40;14.45;;;;;;;-3.34;67.56;101451.66;4975675;28;20046;-76
2024/01/11 07:08:46;;;;;;;31.60;13.30;;;;;;;-3.35;67.76;101451.59;4993157;28;20050;-78
2024/01/11 07:11:13;;;;;;;33.03;14.40;;;;;;;-3.36;67.48;101467.88;4992879;28;20065;-75
2024/01/11 07:13:39;;;;;;;28.13;13.32;;;;;;;-3.37;67.93;101464.44;4992871;28;20154;-77
2024/01/11 07:16:06;;;;;;;32.35;14.05;;;;;;;-3.38;67.81;101459.22;4992689;28;20050;-78
2024/01/11 07:18:32;;;;;;;30.52;14.43;;;;;;;-3.38;68.19;101460.09;4991939;28;20058;-79
2024/01/11 07:20:59;;;;;;;27.40;13.25;;;;;;;-3.37;67.74;101463.56;4992488;28;20086;-75
2024/01/11 07:23:27;;;;;;;34.97;14.48;;;;;;;-3.37;68.04;101472.16;4992537;28;20050;-78
2024/01/11 07:25:53;;;;;;;33.55;15.10;;;;;;;-3.37;68.14;101479.88;4992695;28;20388;-77
2024/01/11 07:28:25;;;;;;;35.15;14.85;;;;;;;-3.35;67.71;101473.09;4975384;28;20109;-78
2024/01/11 07:30:53;;;;;;;29.50;14.45;;;;;;;-3.35;68.38;101485.97;4992633;28;20097;-77
2024/01/11 07:33:20;;;;;;;30.58;14.07;;;;;;;-3.35;68.38;101485.97;4992335;28;20064;-77
2024/01/11 07:35:47;;;;;;;34.20;16.27;;;;;;;-3.34;67.87;101487.69;4992375;28;20062;-77
2024/01/11 07:38:14;;;;;;;33.25;15.10;;;;;;;-3.33;67.96;101484.28;4992561;28;20142;-78
2024/01/11 07:40:41;;;;;;;32.70;15.40;;;;;;;-3.31;67.55;101492.94;4992296;28;20052;-75
2024/01/11 07:43:09;;;;;;;33.60;15.25;;;;;;;-3.30;67.82;101491.22;4992233;28;20046;-76
2024/01/11 07:45:36;;;;;;;33.58;14.80;;;;;;;-3.31;67.71;101490.38;4992264;28;20061;-76
2024/01/11 07:48:03;;;;;;;30.52;13.63;;;;;;;-3.31;68.02;101495.53;4974737;28;20054;-79
2024/01/11 07:50:30;;;;;;;33.00;14.63;;;;;;;-3.31;68.16;101494.63;4992224;28;20716;-78
2024/01/11 07:52:57;;;;;;;28.15;14.00;;;;;;;-3.30;67.77;101507.56;4992178;28;20054;-76
2024/01/11 07:55:23;;;;;;;32.40;14.93;;;;;;;-3.29;67.90;101516.16;4991890;28;20511;-78
2024/01/11 07:57:50;;;;;;;30.52;14.20;;;;;;;-3.29;68.17;101509.28;4974888;28;20398;-78
2024/01/11 08:00:17;;;;;;;35.42;15.38;;;;;;;-3.28;68.33;101516.19;4991790;28;20069;-79
2024/01/11 08:02:43;;;;;;;32.10;14.63;;;;;;;-3.27;68.03;101512.81;4991621;28;20462;-78
2024/01/11 08:05:10;;;;;;;36.28;15.98;;;;;;;-3.25;68.42;101511.97;4992040;28;20088;-79
2024/01/11 08:07:37;;;;;;;33.65;16.05;;;;;;;-3.24;68.20;101531.72;4991996;28;20051;-78
2024/01/11 08:10:04;;;;;;;35.80;16.42;;;;;;;-3.24;67.77;101535.19;4991784;28;20086;-80
2024/01/11 08:12:31;;;;;;;34.35;15.95;;;;;;;-3.23;67.95;101533.47;4991393;28;20514;-78
2024/01/11 08:14:57;;;;;;;33.13;15.63;;;;;;;-3.24;67.86;101529.16;4991606;28;20125;-78
2024/01/11 08:17:24;;;;;;;36.67;16.23;;;;;;;-3.24;68.02;101542.03;4991719;28;20495;-79
2024/01/11 08:19:51;;;;;;;34.72;15.30;;;;;;;-3.24;68.34;101542.94;4991800;28;20085;-79
2024/01/11 08:22:17;;;;;;;38.90;17.30;;;;;;;-3.24;68.08;101542.94;4991503;28;20101;-78
2024/01/11 08:24:44;;;;;;;36.80;17.50;;;;;;;-3.24;68.14;101537.78;4974197;28;20058;-79
2024/01/11 08:27:11;;;;;;;38.55;17.10;;;;;;;-3.24;68.29;101542.03;4991639;28;20050;-78
2024/01/11 08:29:37;;;;;;;36.13;18.27;;;;;;;-3.25;68.23;101548.03;4991332;28;20109;-78
2024/01/11 08:32:04;;;;;;;37.83;17.73;;;;;;;-3.25;68.20;101548.03;4991257;28;20046;-78
2024/01/11 08:34:49;;;;;;;44.22;18.00;;;;;;;-3.25;68.66;101545.44;4991269;28;20046;-78
2024/01/11 08:37:16;;;;;;;36.95;17.00;;;;;;;-3.24;68.72;101545.50;4980481;28;20042;-78
2024/01/11 08:39:43;;;;;;;35.90;16.67;;;;;;;-3.21;69.28;101555.00;4981891;28;20082;-78
2024/01/11 08:42:09;;;;;;;41.47;16.67;;;;;;;-3.18;69.62;101555.13;4981220;28;20121;-78
2024/01/11 08:44:36;;;;;;;40.63;15.18;;;;;;;-3.12;69.85;101557.84;4980149;28;20075;-79
2024/01/11 08:47:03;;;;;;;45.55;16.27;;;;;;;-3.04;70.26;101565.78;4981918;28;20053;-79
2024/01/11 08:49:30;;;;;;;39.83;16.38;;;;;;;-2.95;70.84;101560.91;4981407;28;20046;-78
2024/01/11 08:51:57;;;;;;;37.92;16.35;;;;;;;-2.85;70.25;101546.56;4980893;28;20510;-77
2024/01/11 08:54:23;;;;;;;37.42;15.73;;;;;;;-2.76;70.68;101551.13;4977900;28;20086;-78
2024/01/11 08:56:50;;;;;;;37.13;15.68;;;;;;;-2.68;70.60;101556.47;4959530;28;20088;-78
2024/01/11 08:59:16;;;;;;;37.72;15.68;;;;;;;-2.63;71.16;101544.56;4981886;28;20042;-79
2024/01/11 09:01:43;;;;;;;37.08;14.73;;;;;;;-2.56;70.93;101551.66;4980664;28;20496;-78
2024/01/11 09:04:22;;;;;;;36.40;15.02;;;;;;;-2.46;71.49;101539.88;4981957;28;20046;-79
2024/01/11 09:06:49;;;;;;;40.20;15.07;;;;;;;-2.40;71.41;101527.13;4981529;28;20522;-78
2024/01/11 09:09:16;;;;;;;50.08;14.55;;;;;;;-2.29;71.84;101517.06;4973562;28;20506;-78
2024/01/11 09:11:43;;;;;;;35.97;14.25;;;;;;;-2.19;71.93;101510.44;4990635;28;20060;-81
2024/01/11 09:14:11;;;;;;;36.55;13.68;;;;;;;-2.09;72.44;101508.97;4973690;28;20093;-79
2024/01/11 09:16:39;;;;;;;42.05;13.35;;;;;;;-1.99;72.13;101500.59;4990560;28;20060;-78
2024/01/11 09:19:06;;;;;;;34.63;13.13;;;;;;;-1.86;72.81;101495.69;4990959;28;20058;-78
2024/01/11 09:21:33;;;;;;;33.22;12.93;;;;;;;-1.73;72.53;101497.72;4990530;28;20055;-78
2024/01/11 09:23:59;;;;;;;26.92;11.02;;;;;;;-1.62;72.82;101503.13;4990545;28;20050;-78
2024/01/11 09:26:26;;;;;;;37.47;13.43;;;;;;;-1.48;73.13;101500.84;4973630;28;20085;-78
2024/01/11 09:28:52;;;;;;;30.92;10.70;;;;;;;-1.36;72.92;101492.47;4991076;28;20064;-79
2024/01/11 09:31:19;;;;;;;27.90;10.98;;;;;;;-1.23;73.54;101496.16;4990585;28;20095;-75
2024/01/11 09:33:45;;;;;;;28.77;11.02;;;;;;;-1.10;73.71;101505.03;4973388;28;20144;-78
2024/01/11 09:36:13;;;;;;;30.65;9.57;;;;;;;-0.96;73.70;101515.66;4990679;28;20427;-74
2024/01/11 09:38:43;;;;;;;24.70;9.73;;;;;;;-0.82;73.99;101523.66;4990631;28;20060;-74
2024/01/11 09:41:13;;;;;;;24.92;9.98;;;;;;;-0.68;73.99;101529.09;4991715;28;20085;-75
2024/01/11 09:43:42;;;;;;;29.95;11.38;;;;;;;-0.55;74.14;101539.66;4994417;28;20086;-75
2024/01/11 09:46:11;;;;;;;27.30;10.57;;;;;;;-0.42;73.84;101530.38;4994382;28;20058;-75
2024/01/11 09:48:40;;;;;;;19.38;8.57;;;;;;;-0.31;73.65;101544.41;4977191;28;20054;-75
2024/01/11 09:51:12;;;;;;;21.35;8.48;;;;;;;-0.19;73.94;101546.31;4994023;28;20051;-75
2024/01/11 09:53:40;;;;;;;14.15;5.60;;;;;;;-0.08;73.96;101554.25;4994448;28;20050;-76
2024/01/11 09:56:10;;;;;;;20.20;6.82;;;;;;;0.01;74.02;101557.84;4994397;28;20092;-75
2024/01/11 09:58:44;;;;;;;19.73;8.05;;;;;;;0.10;73.63;101556.28;4976929;28;20060;-75
2024/01/11 10:01:12;;;;;;;22.40;7.40;;;;;;;0.21;73.75;101552.97;4993485;28;20097;-77
2024/01/11 10:03:41;;;;;;;19.92;8.98;;;;;;;0.28;74.10;101554.81;4976486;28;20050;-76
2024/01/11 10:06:09;;;;;;;15.82;8.00;;;;;;;0.36;74.15;101553.22;4976605;28;20046;-75
2024/01/11 10:08:36;;;;;;;17.23;7.80;;;;;;;0.47;74.24;101557.66;4994013;28;20133;-75
2024/01/11 10:11:03;;;;;;;18.73;7.63;;;;;;;0.55;74.18;101557.78;4993610;28;20050;-76
2024/01/11 10:13:32;;;;;;;17.90;7.22;;;;;;;0.63;73.70;101556.13;4993815;28;20747;-75
2024/01/11 10:16:09;;;;;;;14.88;6.95;;;;;;;0.69;74.23;101539.81;4993619;28;20069;-76
2024/01/11 10:18:36;;;;;;;15.32;7.80;;;;;;;0.79;74.13;101536.50;4993960;28;20129;-76
2024/01/11 10:21:03;;;;;;;16.90;6.72;;;;;;;0.86;73.99;101535.72;4993572;28;20141;-77
2024/01/11 10:23:33;;;;;;;17.98;7.15;;;;;;;0.94;74.15;101540.13;4993614;28;20042;-75
2024/01/11 10:26:00;;;;;;;16.83;6.90;;;;;;;1.01;74.14;101532.41;4993640;28;20089;-75
2024/01/11 10:28:27;;;;;;;21.77;7.28;;;;;;;1.09;74.37;101531.66;4993544;28;20058;-75
2024/01/11 10:30:54;;;;;;;16.73;7.30;;;;;;;1.14;73.90;101528.25;4993152;28;20046;-76
2024/01/11 10:33:21;;;;;;;14.90;7.15;;;;;;;1.23;74.22;101531.81;4990663;28;20435;-74
2024/01/11 10:35:49;;;;;;;19.27;6.95;;;;;;;1.27;74.17;101518.88;4976241;28;20056;-76
2024/01/11 10:38:17;;;;;;;15.10;7.05;;;;;;;1.33;74.32;101519.78;4993412;28;20093;-76
2024/01/11 10:40:44;;;;;;;14.52;7.00;;;;;;;1.38;74.03;101529.34;4990831;28;20080;-75
2024/01/11 10:43:11;;;;;;;17.38;6.93;;;;;;;1.43;73.76;101519.88;4993073;28;20061;-76
2024/01/11 10:45:41;;;;;;;18.63;7.82;;;;;;;1.46;73.89;101529.41;4980402;28;20125;-75
2024/01/11 10:48:14;;;;;;;19.27;8.57;;;;;;;1.49;72.65;101533.78;4973722;28;20047;-75
2024/01/11 10:50:49;;;;;;;19.67;7.93;;;;;;;1.53;73.16;101526.03;4973693;28;20066;-75
2024/01/11 10:53:37;;;;;;;16.98;8.10;;;;;;;1.57;72.95;101534.72;4972448;28;20086;-76
2024/01/11 10:56:06;;;;;;;19.67;8.48;;;;;;;1.60;73.52;101537.34;4973809;28;20088;-76
2024/01/11 10:58:35;;;;;;;25.20;9.32;;;;;;;1.62;73.37;101532.16;4973649;28;20054;-75
2024/01/11 11:01:04;;;;;;;24.08;9.57;;;;;;;1.62;73.47;101535.66;4956266;28;20055;-76
2024/01/11 11:03:34;;;;;;;30.05;11.63;;;;;;;1.65;73.08;101538.25;4940516;28;20050;-75
2024/01/11 11:06:01;;;;;;;32.85;11.48;;;;;;;1.67;73.26;101535.66;4973463;28;20065;-76
2024/01/11 11:08:28;;;;;;;31.08;12.63;;;;;;;1.68;73.21;101543.47;4973690;28;20046;-75
2024/01/11 11:10:57;;;;;;;36.25;12.80;;;;;;;1.69;73.38;101533.97;4973391;28;20054;-75
2024/01/11 11:13:24;;;;;;;39.95;13.30;;;;;;;1.71;73.66;101518.41;4956093;28;20051;-76
2024/01/11 11:15:52;;;;;;;28.95;11.68;;;;;;;1.73;73.28;101519.28;4973037;28;20054;-75